createdAt,value
2018-06-18T00:02:05.060Z,4.30
2018-06-18T00:04:34.471Z,3.47
2018-06-18T00:07:03.902Z,3.50
2018-06-18T00:09:33.327Z,3.57
2018-06-18T00:12:02.738Z,3.53
2018-06-18T00:14:32.119Z,4.27
2018-06-18T00:17:01.444Z,3.00
2018-06-18T00:19:30.826Z,3.60
2018-06-18T00:22:00.226Z,3.90
2018-06-18T00:24:29.701Z,3.27
2018-06-18T00:26:59.135Z,3.73
2018-06-18T00:29:28.518Z,4.07
2018-06-18T00:31:57.953Z,2.77
2018-06-18T00:34:27.362Z,3.33
2018-06-18T00:36:56.789Z,3.87
2018-06-18T00:39:26.232Z,4.00
2018-06-18T00:41:55.655Z,3.33
2018-06-18T00:44:25.115Z,3.33
2018-06-18T00:46:54.597Z,3.43
2018-06-18T00:49:24.030Z,3.43
2018-06-18T00:51:53.531Z,3.87
2018-06-18T00:54:22.976Z,3.93
2018-06-18T00:56:52.345Z,4.03
2018-06-18T00:59:21.759Z,3.27
2018-06-18T01:01:51.144Z,3.13
2018-06-18T01:04:20.560Z,3.40
2018-06-18T01:06:49.993Z,3.93
2018-06-18T01:09:19.379Z,3.77
2018-06-18T01:11:48.786Z,3.67
2018-06-18T01:14:21.111Z,3.40
2018-06-18T01:16:50.511Z,3.87
2018-06-18T01:19:19.903Z,3.53
2018-06-18T01:21:49.397Z,5.03
2018-06-18T01:24:48.165Z,4.00
2018-06-18T01:27:17.598Z,4.43
2018-06-18T01:29:47.070Z,3.70
2018-06-18T01:32:16.529Z,3.97
2018-06-18T01:34:45.876Z,3.67
2018-06-18T01:37:15.290Z,3.90
2018-06-18T01:39:44.781Z,3.93
2018-06-18T01:42:14.332Z,4.07
2018-06-18T01:44:43.734Z,3.77
2018-06-18T01:47:13.423Z,3.80
2018-06-18T01:49:42.848Z,3.50
2018-06-18T01:52:12.218Z,3.20
2018-06-18T01:54:41.637Z,2.97
2018-06-18T01:57:11.075Z,2.60
2018-06-18T01:59:40.488Z,4.23
2018-06-18T02:02:09.940Z,3.80
2018-06-18T02:04:39.396Z,3.50
2018-06-18T02:07:08.819Z,3.70
2018-06-18T02:09:38.211Z,3.53
2018-06-18T02:12:07.668Z,3.53
2018-06-18T02:14:37.202Z,3.70
2018-06-18T02:17:06.613Z,3.87
2018-06-18T02:19:36.040Z,3.23
2018-06-18T02:22:05.474Z,3.80
2018-06-18T02:24:35.015Z,3.87
2018-06-18T02:27:09.635Z,3.63
2018-06-18T02:29:44.334Z,4.07
2018-06-18T02:32:18.793Z,4.10
2018-06-18T02:34:53.441Z,3.47
2018-06-18T02:37:28.136Z,3.97
2018-06-18T02:40:02.717Z,4.23
2018-06-18T02:42:32.172Z,4.23
2018-06-18T02:45:01.667Z,4.30
2018-06-18T02:47:31.048Z,4.00
2018-06-18T02:50:00.465Z,5.57
2018-06-18T02:52:29.867Z,3.60
2018-06-18T02:54:59.282Z,3.60
2018-06-18T02:57:28.692Z,4.93
2018-06-18T02:59:58.154Z,4.63
2018-06-18T03:02:27.606Z,4.37
2018-06-18T03:04:57.105Z,4.90
2018-06-18T03:07:26.551Z,5.07
2018-06-18T03:09:56.063Z,4.93
2018-06-18T03:12:25.474Z,5.70
2018-06-18T03:14:55.068Z,4.87
2018-06-18T03:17:24.559Z,5.30
2018-06-18T03:19:59.372Z,5.00
2018-06-18T03:22:34.159Z,5.43
2018-06-18T03:25:08.882Z,5.73
2018-06-18T03:27:43.522Z,5.10
2018-06-18T03:30:12.925Z,7.00
2018-06-18T03:32:43.036Z,6.73
2018-06-18T03:35:12.478Z,6.47
2018-06-18T03:37:41.996Z,6.20
2018-06-18T03:40:11.470Z,5.33
2018-06-18T03:42:41.561Z,6.60
2018-06-18T03:45:21.042Z,6.10
2018-06-18T03:47:50.496Z,6.00
2018-06-18T03:50:19.942Z,6.97
2018-06-18T03:52:49.058Z,6.60
2018-06-18T03:55:38.804Z,6.90
2018-06-18T03:58:08.234Z,6.33
2018-06-18T04:00:49.566Z,6.50
2018-06-18T04:03:24.396Z,7.00
2018-06-18T04:05:59.315Z,6.67
2018-06-18T04:08:28.742Z,5.80
2018-06-18T04:11:03.426Z,6.73
2018-06-18T04:13:32.829Z,5.90
2018-06-18T04:16:02.231Z,6.77
2018-06-18T04:18:31.664Z,5.97
2018-06-18T04:21:01.132Z,5.83
2018-06-18T04:23:30.600Z,6.10
2018-06-18T04:26:00.060Z,5.97
2018-06-18T04:28:29.472Z,5.87
2018-06-18T04:30:58.917Z,6.40
2018-06-18T04:33:29.645Z,5.50
2018-06-18T04:35:59.082Z,5.97
2018-06-18T04:38:28.535Z,5.27
2018-06-18T04:40:57.925Z,4.87
2018-06-18T04:43:32.597Z,5.20
2018-06-18T04:46:07.354Z,5.77
2018-06-18T04:48:42.035Z,5.80
2018-06-18T04:51:11.468Z,5.63
2018-06-18T04:53:40.939Z,7.13
2018-06-18T04:56:10.323Z,5.50
2018-06-18T04:58:39.757Z,5.90
2018-06-18T05:01:24.309Z,5.70
2018-06-18T05:03:54.056Z,4.80
2018-06-18T05:06:24.417Z,4.70
2018-06-18T05:10:02.718Z,4.97
2018-06-18T05:12:32.164Z,5.13
2018-06-18T05:15:02.231Z,4.47
2018-06-18T05:17:31.610Z,5.77
2018-06-18T05:20:01.013Z,11.80
2018-06-18T05:22:30.479Z,5.90
2018-06-18T05:24:59.881Z,5.43
2018-06-18T05:27:33.193Z,6.30
2018-06-18T05:30:08.900Z,5.80
2018-06-18T05:32:38.327Z,6.10
2018-06-18T05:35:09.472Z,4.97
2018-06-18T05:37:45.237Z,5.17
2018-06-18T05:40:14.611Z,5.57
2018-06-18T05:42:43.999Z,4.27
2018-06-18T05:45:13.668Z,5.70
2018-06-18T05:47:43.052Z,5.40
2018-06-18T05:50:12.458Z,5.87
2018-06-18T05:52:41.871Z,5.30
2018-06-18T05:55:11.248Z,4.40
2018-06-18T05:57:40.604Z,5.03
2018-06-18T06:00:10.066Z,5.30
2018-06-18T06:02:39.484Z,5.30
2018-06-18T06:05:08.973Z,4.57
2018-06-18T06:07:38.399Z,3.67
2018-06-18T06:10:07.776Z,4.07
2018-06-18T06:12:37.180Z,2.90
2018-06-18T06:15:06.706Z,2.87
2018-06-18T06:17:36.154Z,3.33
2018-06-18T06:20:07.179Z,3.27
2018-06-18T06:22:36.565Z,3.10
2018-06-18T06:25:06.146Z,3.07
2018-06-18T06:27:35.823Z,2.97
2018-06-18T06:30:05.703Z,3.13
2018-06-18T06:32:35.114Z,2.50
2018-06-18T06:35:22.349Z,2.93
2018-06-18T06:37:51.757Z,2.33
2018-06-18T06:40:21.197Z,2.70
2018-06-18T06:42:50.616Z,2.77
2018-06-18T06:45:20.280Z,2.30
2018-06-18T06:47:49.650Z,2.10
2018-06-18T06:50:19.051Z,1.77
2018-06-18T06:52:48.513Z,2.50
2018-06-18T06:55:17.926Z,2.33
2018-06-18T06:57:47.336Z,3.63
2018-06-18T07:00:16.773Z,3.43
2018-06-18T07:02:46.176Z,3.53
2018-06-18T07:05:15.569Z,3.80
2018-06-18T07:07:44.970Z,3.63
2018-06-18T07:10:14.431Z,3.90
2018-06-18T07:12:43.920Z,3.20
2018-06-18T07:15:13.375Z,4.17
2018-06-18T07:17:43.561Z,4.50
2018-06-18T07:20:13.031Z,3.20
2018-06-18T07:22:42.425Z,3.90
2018-06-18T07:25:11.884Z,2.83
2018-06-18T07:27:41.321Z,2.37
2018-06-18T07:30:10.834Z,2.57
2018-06-18T07:32:40.283Z,3.50
2018-06-18T07:35:09.658Z,3.07
2018-06-18T07:37:39.068Z,2.20
2018-06-18T07:40:08.574Z,2.73
2018-06-18T07:42:37.963Z,2.57
2018-06-18T07:45:07.378Z,2.50
2018-06-18T07:47:36.773Z,1.80
2018-06-18T07:50:06.274Z,1.77
2018-06-18T07:52:35.741Z,1.80
2018-06-18T07:55:05.446Z,2.17
2018-06-18T07:57:34.956Z,2.37
2018-06-18T08:00:04.374Z,1.67
2018-06-18T08:02:33.504Z,2.40
2018-06-18T08:05:02.918Z,2.10
2018-06-18T08:07:32.337Z,1.50
2018-06-18T08:10:01.757Z,2.30
2018-06-18T08:12:31.145Z,2.33
2018-06-18T08:15:00.535Z,2.70
2018-06-18T08:17:29.911Z,2.53
2018-06-18T08:19:59.426Z,2.33
2018-06-18T08:22:28.842Z,2.00
2018-06-18T08:24:58.214Z,1.70
2018-06-18T08:27:27.580Z,2.17
2018-06-18T08:29:56.964Z,2.00
2018-06-18T08:32:26.360Z,2.23
2018-06-18T08:34:55.775Z,2.90
2018-06-18T08:37:25.139Z,2.43
2018-06-18T08:39:54.527Z,2.50
2018-06-18T08:42:23.994Z,3.30
2018-06-18T08:44:53.438Z,3.40
2018-06-18T08:47:22.825Z,2.27
2018-06-18T08:49:57.514Z,2.53
2018-06-18T08:53:34.806Z,2.57
2018-06-18T08:56:09.427Z,2.10
2018-06-18T08:58:44.032Z,2.80
2018-06-18T09:01:19.332Z,2.00
2018-06-18T09:03:52.881Z,2.33
2018-06-18T09:06:23.174Z,2.90
2018-06-18T09:08:55.883Z,2.30
2018-06-18T09:11:25.691Z,2.20
2018-06-18T09:13:55.528Z,2.00
2018-06-18T09:16:24.887Z,1.73
2018-06-18T09:18:54.456Z,1.53
2018-06-18T09:21:23.821Z,2.53
2018-06-18T09:23:54.576Z,1.83
2018-06-18T09:26:24.047Z,2.03
2018-06-18T09:28:53.483Z,1.60
2018-06-18T09:31:22.876Z,1.50
2018-06-18T09:33:52.289Z,1.77
2018-06-18T09:36:21.699Z,1.53
2018-06-18T09:38:51.131Z,1.43
2018-06-18T09:41:20.532Z,1.40
2018-06-18T09:43:49.866Z,1.30
2018-06-18T09:46:19.300Z,1.90
2018-06-18T09:48:54.001Z,1.40
2018-06-18T09:51:28.600Z,1.43
2018-06-18T09:54:03.287Z,1.20
2018-06-18T09:56:38.700Z,0.73
2018-06-18T09:59:13.522Z,1.10
2018-06-18T10:01:42.896Z,1.10
2018-06-18T10:04:12.294Z,1.10
2018-06-18T10:06:41.738Z,1.10
2018-06-18T10:09:11.928Z,1.17
2018-06-18T10:11:41.333Z,1.07
2018-06-18T10:14:12.033Z,1.30
2018-06-18T10:16:41.505Z,1.10
2018-06-18T10:19:10.932Z,1.20
2018-06-18T10:21:40.405Z,1.37
2018-06-18T10:24:09.895Z,1.60
2018-06-18T10:26:39.341Z,1.93
2018-06-18T10:29:08.761Z,2.53
2018-06-18T10:31:38.159Z,1.70
2018-06-18T10:34:12.769Z,1.50
2018-06-18T10:36:47.298Z,2.87
2018-06-18T10:39:21.975Z,2.10
2018-06-18T10:41:56.559Z,1.83
2018-06-18T10:44:25.974Z,1.40
2018-06-18T10:46:55.153Z,2.30
2018-06-18T10:49:24.561Z,1.57
2018-06-18T10:51:53.998Z,2.33
2018-06-18T10:54:23.436Z,1.53
2018-06-18T10:56:53.038Z,1.80
2018-06-18T10:59:22.559Z,1.73
2018-06-18T11:01:51.936Z,1.30
2018-06-18T11:04:26.536Z,1.70
2018-06-18T11:06:55.908Z,1.60
2018-06-18T11:09:25.333Z,2.27
2018-06-18T11:11:54.791Z,1.40
2018-06-18T11:14:24.196Z,1.47
2018-06-18T11:16:59.180Z,1.90
2018-06-18T11:19:33.721Z,1.60
2018-06-18T11:22:04.984Z,1.47
2018-06-18T11:24:39.679Z,1.50
2018-06-18T11:27:10.012Z,2.17
2018-06-18T11:29:39.351Z,1.40
2018-06-18T11:32:08.892Z,1.50
2018-06-18T11:34:38.407Z,2.10
2018-06-18T11:37:07.859Z,1.73
2018-06-18T11:39:37.334Z,1.90
2018-06-18T11:42:06.746Z,1.57
2018-06-18T11:44:36.253Z,2.30
2018-06-18T11:47:05.766Z,1.90
2018-06-18T11:49:35.224Z,1.77
2018-06-18T11:52:04.592Z,1.60
2018-06-18T11:54:33.995Z,1.90
2018-06-18T11:57:03.428Z,1.43
2018-06-18T11:59:37.955Z,2.00
2018-06-18T12:02:12.612Z,1.47
2018-06-18T12:04:47.188Z,1.63
2018-06-18T12:07:21.848Z,1.80
2018-06-18T12:09:52.271Z,2.07
2018-06-18T12:12:21.721Z,1.97
2018-06-18T12:14:51.093Z,1.60
2018-06-18T12:17:20.511Z,1.90
2018-06-18T12:19:49.964Z,1.47
2018-06-18T12:22:19.556Z,1.60
2018-06-18T12:24:48.987Z,1.40
2018-06-18T12:27:22.687Z,1.50
2018-06-18T12:29:52.222Z,1.60
2018-06-18T12:32:21.688Z,1.10
2018-06-18T12:34:51.104Z,1.27
2018-06-18T12:37:20.607Z,0.87
2018-06-18T12:39:50.464Z,1.23
2018-06-18T12:42:19.941Z,1.20
2018-06-18T12:44:54.715Z,1.23
2018-06-18T12:47:29.385Z,1.30
2018-06-18T12:50:04.236Z,1.20
2018-06-18T12:52:39.057Z,1.13
2018-06-18T12:55:13.784Z,1.00
2018-06-18T12:57:43.260Z,1.23
2018-06-18T13:00:12.690Z,0.90
2018-06-18T13:02:48.966Z,1.13
2018-06-18T13:05:18.433Z,1.43
2018-06-18T13:07:47.824Z,1.43
2018-06-18T13:10:17.182Z,1.00
2018-06-18T13:12:46.600Z,1.00
2018-06-18T13:15:16.047Z,1.43
2018-06-18T13:17:45.448Z,1.17
2018-06-18T13:20:14.876Z,0.90
2018-06-18T13:22:44.308Z,1.10
2018-06-18T13:25:13.778Z,1.30
2018-06-18T13:27:48.584Z,1.30
2018-06-18T13:30:18.003Z,0.97
2018-06-18T13:32:47.467Z,1.03
2018-06-18T13:35:16.876Z,1.10
2018-06-18T13:37:51.640Z,1.30
2018-06-18T13:40:26.321Z,1.50
2018-06-18T13:43:01.042Z,1.40
2018-06-18T13:45:35.005Z,1.33
2018-06-18T13:48:09.732Z,1.03
2018-06-18T13:50:39.238Z,1.07
2018-06-18T13:53:08.679Z,1.30
2018-06-18T13:55:38.054Z,1.37
2018-06-18T13:58:07.575Z,1.07
2018-06-18T14:00:37.067Z,1.60
2018-06-18T14:03:06.612Z,1.23
2018-06-18T14:05:35.969Z,1.20
2018-06-18T14:08:05.224Z,1.10
2018-06-18T14:10:34.665Z,0.87
2018-06-18T14:13:04.065Z,1.00
2018-06-18T14:15:33.503Z,1.40
2018-06-18T14:18:02.916Z,1.03
2018-06-18T14:20:32.374Z,0.97
2018-06-18T14:23:01.849Z,1.00
2018-06-18T14:25:31.296Z,1.40
2018-06-18T14:28:00.745Z,1.17
2018-06-18T14:30:35.395Z,0.93
2018-06-18T14:33:10.013Z,1.17
2018-06-18T14:35:44.738Z,1.10
2018-06-18T14:38:19.414Z,1.30
2018-06-18T14:40:48.914Z,1.50
2018-06-18T14:43:18.358Z,1.10
2018-06-18T14:45:47.912Z,1.17
2018-06-18T14:48:17.253Z,1.13
2018-06-18T14:50:46.738Z,1.70
2018-06-18T14:53:16.146Z,1.20
2018-06-18T14:55:51.621Z,1.70
2018-06-18T14:58:20.987Z,1.30
2018-06-18T15:00:50.371Z,1.20
2018-06-18T15:03:19.796Z,1.10
2018-06-18T15:05:49.156Z,1.50
2018-06-18T15:08:18.601Z,1.50
2018-06-18T15:10:54.268Z,1.63
2018-06-18T15:13:23.892Z,1.30
2018-06-18T15:15:58.483Z,1.13
2018-06-18T15:18:27.917Z,1.60
2018-06-18T15:21:01.369Z,1.20
2018-06-18T15:23:30.804Z,1.50
2018-06-18T15:26:00.289Z,1.13
2018-06-18T15:28:29.650Z,1.43
2018-06-18T15:30:59.193Z,1.57
2018-06-18T15:33:28.555Z,1.67
2018-06-18T15:35:57.936Z,1.10
2018-06-18T15:38:27.431Z,1.97
2018-06-18T15:40:56.815Z,1.70
2018-06-18T15:43:26.332Z,1.63
2018-06-18T15:45:55.731Z,1.77
2018-06-18T15:48:25.194Z,1.50
2018-06-18T15:50:54.680Z,1.50
2018-06-18T15:53:24.089Z,2.20
2018-06-18T15:55:53.619Z,1.37
2018-06-18T15:58:23.034Z,1.60
2018-06-18T16:00:52.441Z,2.27
2018-06-18T16:03:22.025Z,1.73
2018-06-18T16:05:51.517Z,1.97
2018-06-18T16:08:20.952Z,1.30
2018-06-18T16:10:50.509Z,1.40
2018-06-18T16:13:19.934Z,1.60
2018-06-18T16:15:49.373Z,2.03
2018-06-18T16:18:18.873Z,1.60
2018-06-18T16:20:48.072Z,1.90
2018-06-18T16:23:17.305Z,2.17
2018-06-18T16:25:46.863Z,1.80
2018-06-18T16:28:16.268Z,1.70
2018-06-18T16:30:45.621Z,1.73
2018-06-18T16:33:14.994Z,1.90
2018-06-18T16:35:44.479Z,1.50
2018-06-18T16:38:13.812Z,1.90
2018-06-18T16:40:43.283Z,1.97
2018-06-18T16:43:12.781Z,2.60
2018-06-18T16:45:42.225Z,2.20
2018-06-18T16:48:11.641Z,2.40
2018-06-18T16:50:41.047Z,2.10
2018-06-18T16:53:10.518Z,2.17
2018-06-18T16:55:39.979Z,2.00
2018-06-18T16:58:09.620Z,1.57
2018-06-18T17:00:38.986Z,1.70
2018-06-18T17:03:08.321Z,1.40
2018-06-18T17:05:37.760Z,1.80
2018-06-18T17:08:07.117Z,1.87
2018-06-18T17:10:36.493Z,1.33
2018-06-18T17:13:05.926Z,1.80
2018-06-18T17:15:35.382Z,1.43
2018-06-18T17:18:05.007Z,2.10
2018-06-18T17:20:34.753Z,1.70
2018-06-18T17:23:04.189Z,1.57
2018-06-18T17:25:33.637Z,1.67
2018-06-18T17:28:03.045Z,1.27
2018-06-18T17:30:32.485Z,1.27
2018-06-18T17:33:01.963Z,1.30
2018-06-18T17:35:31.388Z,1.90
2018-06-18T17:38:00.640Z,1.60
2018-06-18T17:40:30.542Z,1.80
2018-06-18T17:42:59.960Z,2.37
2018-06-18T17:45:29.425Z,1.83
2018-06-18T17:47:58.853Z,1.77
2018-06-18T17:50:28.260Z,2.20
2018-06-18T17:52:57.689Z,2.50
2018-06-18T17:55:27.162Z,2.37
2018-06-18T17:57:56.612Z,1.93
2018-06-18T18:00:26.125Z,2.20
2018-06-18T18:02:55.328Z,2.23
2018-06-18T18:05:24.773Z,2.00
2018-06-18T18:07:54.336Z,1.97
2018-06-18T18:10:23.838Z,3.53
2018-06-18T18:12:53.264Z,2.07
2018-06-18T18:15:22.815Z,2.03
2018-06-18T18:17:52.246Z,2.30
2018-06-18T18:20:21.709Z,2.23
2018-06-18T18:22:51.587Z,2.57
2018-06-18T18:25:20.955Z,2.07
2018-06-18T18:27:50.431Z,2.07
2018-06-18T18:30:19.873Z,2.60
2018-06-18T18:32:49.298Z,2.40
2018-06-18T18:35:18.771Z,2.00
2018-06-18T18:37:48.183Z,2.23
2018-06-18T18:40:17.690Z,1.77
2018-06-18T18:42:47.025Z,1.53
2018-06-18T18:45:16.395Z,2.20
2018-06-18T18:47:45.836Z,2.10
2018-06-18T18:50:15.304Z,2.40
2018-06-18T18:52:44.789Z,1.73
2018-06-18T18:55:41.512Z,2.10
2018-06-18T18:59:28.777Z,2.20
2018-06-18T19:01:58.796Z,2.20
2018-06-18T19:04:37.087Z,1.83
2018-06-18T19:07:07.627Z,2.40
2018-06-18T19:09:53.957Z,1.67
2018-06-18T19:12:23.359Z,1.97
2018-06-18T19:14:52.740Z,2.40
2018-06-18T19:17:22.118Z,1.90
2018-06-18T19:19:58.736Z,2.53
2018-06-18T19:22:28.205Z,2.30
2018-06-18T19:24:57.633Z,2.37
2018-06-18T19:27:27.051Z,2.40
2018-06-18T19:29:56.498Z,2.30
2018-06-18T19:32:26.031Z,2.40
2018-06-18T19:34:57.156Z,2.53
2018-06-18T19:37:28.678Z,2.40
2018-06-18T19:39:58.160Z,2.00
2018-06-18T19:42:27.620Z,2.27
2018-06-18T19:44:57.194Z,2.00
2018-06-18T19:47:43.419Z,1.93
2018-06-18T19:50:12.857Z,1.90
2018-06-18T19:52:42.555Z,1.97
2018-06-18T19:55:19.348Z,2.23
2018-06-18T19:57:48.760Z,1.90
2018-06-18T20:00:18.271Z,2.20
2018-06-18T20:02:47.667Z,1.53
2018-06-18T20:05:17.060Z,2.30
2018-06-18T20:07:55.579Z,2.37
2018-06-18T20:10:25.488Z,1.80
2018-06-18T20:12:55.336Z,1.60
2018-06-18T20:15:25.363Z,2.03
2018-06-18T20:17:54.881Z,2.10
2018-06-18T20:20:24.433Z,2.17
2018-06-18T20:22:53.938Z,1.80
2018-06-18T20:25:32.653Z,2.10
2018-06-18T20:28:02.180Z,1.73
2018-06-18T20:30:31.821Z,2.10
2018-06-18T20:33:01.310Z,2.13
2018-06-18T20:35:35.012Z,1.80
2018-06-18T20:38:04.599Z,2.37
2018-06-18T20:40:34.199Z,1.70
2018-06-18T20:43:03.850Z,1.93
2018-06-18T20:45:33.347Z,2.10
2018-06-18T20:48:03.012Z,1.73
2018-06-18T20:50:32.369Z,2.10
2018-06-18T20:53:01.861Z,2.37
2018-06-18T20:55:31.496Z,1.67
2018-06-18T20:58:01.071Z,2.10
2018-06-18T21:00:30.716Z,2.40
2018-06-18T21:03:00.289Z,1.90
2018-06-18T21:05:30.096Z,2.50
2018-06-18T21:07:59.582Z,2.30
2018-06-18T21:10:29.358Z,2.50
2018-06-18T21:13:00.042Z,2.53
2018-06-18T21:15:29.740Z,2.13
2018-06-18T21:17:59.291Z,2.33
2018-06-18T21:20:28.940Z,2.80
2018-06-18T21:22:58.376Z,2.40
2018-06-18T21:25:28.024Z,2.33
2018-06-18T21:27:57.529Z,2.07
2018-06-18T21:30:27.064Z,2.27
2018-06-18T21:32:56.278Z,2.50
2018-06-18T21:35:25.832Z,2.97
2018-06-18T21:37:55.312Z,2.17
2018-06-18T21:40:24.814Z,2.60
2018-06-18T21:42:54.285Z,2.70
2018-06-18T21:45:26.200Z,2.50
2018-06-18T21:47:57.564Z,2.53
2018-06-18T21:50:27.225Z,3.47
2018-06-18T21:52:56.708Z,2.33
2018-06-18T21:55:26.183Z,2.60
2018-06-18T21:57:55.656Z,2.73
2018-06-18T22:00:31.186Z,3.10
2018-06-18T22:03:00.692Z,2.80
2018-06-18T22:05:30.106Z,2.90
2018-06-18T22:07:59.641Z,2.57
2018-06-18T22:10:29.185Z,2.53
2018-06-18T22:12:58.657Z,2.77
2018-06-18T22:15:28.187Z,2.60
2018-06-18T22:17:57.729Z,3.13
2018-06-18T22:20:27.324Z,2.50
2018-06-18T22:22:56.830Z,3.10
2018-06-18T22:25:26.583Z,2.70
2018-06-18T22:27:56.209Z,2.47
2018-06-18T22:30:25.606Z,3.30
2018-06-18T22:32:55.108Z,2.97
2018-06-18T22:35:24.539Z,2.77
2018-06-18T22:37:54.162Z,2.63
2018-06-18T22:40:23.699Z,2.83
2018-06-18T22:42:53.307Z,3.20
2018-06-18T22:45:22.805Z,2.83
2018-06-18T22:47:52.309Z,3.33
2018-06-18T22:50:21.899Z,3.50
2018-06-18T22:52:51.479Z,2.80
2018-06-18T22:55:21.027Z,2.70
2018-06-18T22:57:50.562Z,3.40
2018-06-18T23:00:20.055Z,3.70
2018-06-18T23:02:49.600Z,3.80
2018-06-18T23:05:19.169Z,3.10
2018-06-18T23:07:48.724Z,3.40
2018-06-18T23:10:18.307Z,4.20
2018-06-18T23:12:47.845Z,3.73
2018-06-18T23:15:17.364Z,3.33
2018-06-18T23:17:46.872Z,3.47
2018-06-18T23:20:16.442Z,3.30
2018-06-18T23:22:46.086Z,3.30
2018-06-18T23:25:15.591Z,3.67
2018-06-18T23:27:45.524Z,3.20
2018-06-18T23:30:15.123Z,2.93
2018-06-18T23:32:44.669Z,3.40
2018-06-18T23:35:14.176Z,3.00
2018-06-18T23:37:43.661Z,3.30
2018-06-18T23:40:13.309Z,3.30
2018-06-18T23:42:42.827Z,3.17
2018-06-18T23:45:12.369Z,3.83
2018-06-18T23:47:41.887Z,3.17
2018-06-18T23:50:11.400Z,2.30
2018-06-18T23:52:41.064Z,3.33
2018-06-18T23:55:10.552Z,3.30
2018-06-18T23:57:40.085Z,3.33
